Time;durP1;ratioP1;P1;durP2;ratioP2;P2;SDS_P1;SDS_P2;PMS_P1;PMS_P2;Temp;Humidity;BMP_temperature;BMP_pressure;BME280_temperature;BME280_humidity;BME280_pressure;Samples;Min_cycle;Max_cycle;Signal;HPM_P1;HPM_P2
2024/03/14 15:15:21;;;;;;;14.20;6.80;;;;;;;5.51;58.64;99088.73;102795;1289;600886;-27
2024/03/14 15:17:51;;;;;;;14.80;7.40;;;;;;;5.68;58.38;99087.34;105791;1259;61142;-30
2024/03/14 15:20:22;;;;;;;10.70;6.90;;;;;;;5.60;58.31;99089.19;105798;1256;61421;-27
2024/03/14 15:22:52;;;;;;;10.80;6.50;;;;;;;5.57;58.59;99089.73;105764;1258;73994;-29
2024/03/14 15:25:21;;;;;;;15.10;6.30;;;;;;;5.48;59.73;99089.58;105659;1258;77026;-29
2024/03/14 15:27:50;;;;;;;10.00;4.70;;;;;;;5.38;60.44;99089.67;105630;1258;212366;-28
2024/03/14 15:30:22;;;;;;;11.30;4.60;;;;;;;6.02;60.09;99091.36;105723;1254;62076;-28
2024/03/14 15:32:51;;;;;;;9.30;4.80;;;;;;;6.75;58.26;99087.14;105923;1251;61448;-29
2024/03/14 15:35:19;;;;;;;10.90;5.30;;;;;;;6.80;57.22;99090.77;105956;1258;74989;-27
2024/03/14 15:37:47;;;;;;;17.20;5.50;;;;;;;6.58;57.52;99089.59;105740;1258;76734;-28
2024/03/14 15:40:15;;;;;;;10.20;6.00;;;;;;;6.39;57.95;99082.67;105958;1256;75522;-28
2024/03/14 15:42:44;;;;;;;8.00;4.90;;;;;;;6.21;58.54;99089.85;105941;1256;61167;-27
2024/03/14 15:45:21;;;;;;;8.80;5.10;;;;;;;6.06;59.22;99091.10;106010;1256;61397;-27
2024/03/14 15:47:49;;;;;;;11.20;6.20;;;;;;;5.86;59.52;99089.39;105932;1252;75917;-30
2024/03/14 15:50:21;;;;;;;9.00;6.10;;;;;;;5.70;60.06;99091.55;105944;1256;75457;-27
2024/03/14 15:52:50;;;;;;;9.30;6.00;;;;;;;5.54;60.63;99088.84;105778;1257;75346;-26
2024/03/14 15:55:20;;;;;;;11.90;6.60;;;;;;;5.41;61.37;99087.41;105685;1266;61205;-27
2024/03/14 15:57:48;;;;;;;10.70;5.50;;;;;;;5.33;61.56;99089.62;105734;1259;62089;-27
2024/03/14 16:00:19;;;;;;;10.90;6.40;;;;;;;5.29;61.48;99093.82;105679;1253;73985;-27
2024/03/14 16:02:48;;;;;;;7.30;4.50;;;;;;;5.21;61.87;99096.33;105695;1259;76559;-27
2024/03/14 16:05:15;;;;;;;8.30;5.30;;;;;;;5.80;61.43;99097.30;105691;1255;75675;-26
2024/03/14 16:07:46;;;;;;;13.00;6.00;;;;;;;6.56;59.17;99096.61;105612;1257;62739;-27
2024/03/14 16:10:15;;;;;;;10.80;6.00;;;;;;;6.77;57.89;99101.70;105681;1253;61415;-27
2024/03/14 16:12:47;;;;;;;12.30;5.60;;;;;;;6.67;57.81;99103.88;105780;1257;75462;-27
2024/03/14 16:15:16;;;;;;;13.30;6.20;;;;;;;6.48;57.97;99101.94;105852;1258;75780;-27
2024/03/14 16:17:45;;;;;;;10.40;6.20;;;;;;;6.27;58.66;99108.97;105694;1259;76669;-27
2024/03/14 16:20:28;;;;;;;10.70;6.10;;;;;;;6.08;59.08;99108.89;105850;1259;61471;-27
2024/03/14 16:23:03;;;;;;;13.70;6.30;;;;;;;5.91;59.50;99112.34;105687;1259;62907;-26
2024/03/14 16:25:35;;;;;;;8.70;6.30;;;;;;;5.70;60.26;99115.66;105738;1259;75776;-27
2024/03/14 16:28:05;;;;;;;8.10;5.70;;;;;;;5.51;60.91;99116.61;105748;1258;75557;-27
2024/03/14 16:30:34;;;;;;;12.30;6.80;;;;;;;5.38;61.22;99120.61;105718;1258;74759;-27
2024/03/14 16:33:04;;;;;;;9.80;6.10;;;;;;;5.22;62.05;99119.52;105717;1260;62175;-27
2024/03/14 16:35:33;;;;;;;11.80;4.30;;;;;;;5.02;63.12;99121.68;105458;1254;61308;-26
2024/03/14 16:38:02;;;;;;;11.00;5.30;;;;;;;5.71;62.30;99124.21;105608;1260;75802;-26
2024/03/14 16:40:31;;;;;;;15.60;6.40;;;;;;;6.50;60.20;99121.66;105500;1260;75331;-26
2024/03/14 16:43:01;;;;;;;13.00;7.10;;;;;;;6.69;58.91;99121.29;105668;1262;73893;-26
2024/03/14 16:45:28;;;;;;;11.60;5.60;;;;;;;6.62;58.66;99126.41;105701;1263;61584;-26
2024/03/14 16:48:00;;;;;;;9.80;6.00;;;;;;;6.44;59.02;99126.48;105765;1259;61051;-26
2024/03/14 16:50:31;;;;;;;7.80;5.30;;;;;;;6.23;59.20;99125.06;105646;1258;76943;-27
2024/03/14 16:52:59;;;;;;;8.10;5.30;;;;;;;6.03;59.60;99123.50;105692;1258;78379;-26
2024/03/14 16:55:28;;;;;;;9.70;6.70;;;;;;;5.89;60.22;99126.59;105651;1260;73662;-26
2024/03/14 16:58:02;;;;;;;9.90;6.30;;;;;;;5.70;60.96;99126.48;105389;1261;61195;-26
2024/03/14 17:00:30;;;;;;;14.30;6.10;;;;;;;5.49;61.98;99124.67;105706;1259;62758;-26
2024/03/14 17:02:59;;;;;;;10.70;6.90;;;;;;;5.29;63.13;99121.54;105693;1255;74822;-26
2024/03/14 17:05:28;;;;;;;8.60;4.80;;;;;;;5.02;65.07;99124.58;105746;1260;76536;-26
2024/03/14 17:07:57;;;;;;;8.60;5.40;;;;;;;5.37;65.13;99125.67;105692;1259;75399;-26
2024/03/14 17:10:25;;;;;;;9.20;6.10;;;;;;;5.96;62.77;99122.58;105594;1260;61237;-26
2024/03/14 17:12:54;;;;;;;10.50;6.30;;;;;;;6.03;61.86;99120.27;105636;1260;61846;-26
2024/03/14 17:15:22;;;;;;;11.40;6.70;;;;;;;5.96;61.58;99126.52;105504;1262;74128;-26
2024/03/14 17:17:50;;;;;;;15.80;6.20;;;;;;;5.75;61.42;99127.45;105666;1266;76768;-26
2024/03/14 17:20:18;;;;;;;9.60;6.10;;;;;;;5.69;61.86;99127.59;105572;1258;75214;-26
2024/03/14 17:22:46;;;;;;;9.10;5.90;;;;;;;5.62;61.56;99130.08;105702;1254;61155;-26
2024/03/14 17:25:15;;;;;;;11.40;6.50;;;;;;;5.50;62.26;99132.86;105544;1254;61403;-26
2024/03/14 17:27:43;;;;;;;9.50;5.60;;;;;;;5.40;63.33;99132.75;105609;1258;74446;-26
2024/03/14 17:30:15;;;;;;;12.10;6.00;;;;;;;5.26;64.02;99136.46;105710;1257;76332;-26
2024/03/14 17:32:44;;;;;;;10.40;5.50;;;;;;;5.14;64.33;99136.98;105691;1259;75442;-26
2024/03/14 17:35:13;;;;;;;9.20;5.10;;;;;;;4.99;64.86;99132.54;105643;1267;62331;-26
2024/03/14 17:37:44;;;;;;;12.40;6.40;;;;;;;5.42;64.66;99132.27;105817;1257;61103;-26
2024/03/14 17:40:11;;;;;;;10.80;7.10;;;;;;;6.02;62.01;99125.10;105678;1261;74833;-26
2024/03/14 17:42:43;;;;;;;14.10;8.40;;;;;;;6.16;61.28;99127.73;105902;1259;77179;-26
2024/03/14 17:45:15;;;;;;;15.80;8.30;;;;;;;5.97;61.35;99127.65;105240;1257;76674;-26
2024/03/14 17:47:45;;;;;;;12.90;7.40;;;;;;;5.70;62.12;99131.67;105538;1259;62371;-26
2024/03/14 17:50:15;;;;;;;13.60;8.40;;;;;;;5.44;62.38;99130.77;105292;1262;62288;-26
2024/03/14 17:52:48;;;;;;;15.10;8.90;;;;;;;5.39;62.81;99135.21;105691;1255;73736;-26
2024/03/14 17:55:17;;;;;;;;;;;;;;;5.29;62.55;99135.96;105696;1260;76312;-26
2024/03/14 17:57:45;;;;;;;13.00;7.50;;;;;;;5.22;62.50;99135.16;105752;1260;73340;-26
2024/03/14 18:00:15;;;;;;;13.60;8.30;;;;;;;5.13;63.34;99130.87;105699;1257;61159;-26
2024/03/14 18:02:48;;;;;;;11.30;7.50;;;;;;;4.93;64.25;99130.11;105718;1257;62817;-26
2024/03/14 18:05:16;;;;;;;9.00;6.40;;;;;;;4.77;65.25;99131.16;105536;1260;75788;-26
2024/03/14 18:07:45;;;;;;;13.90;7.80;;;;;;;5.46;64.30;99136.02;105663;1258;76251;-26
2024/03/14 18:10:16;;;;;;;16.90;9.40;;;;;;;6.22;62.42;99135.97;105680;1257;75479;-26
2024/03/14 18:12:47;;;;;;;15.20;9.30;;;;;;;6.27;61.21;99136.50;105588;1254;61888;-27
2024/03/14 18:15:17;;;;;;;14.60;8.40;;;;;;;6.11;61.28;99134.05;105617;1254;61016;-26
2024/03/14 18:17:48;;;;;;;16.60;8.40;;;;;;;5.90;61.71;99133.23;105748;1265;74414;-26
2024/03/14 18:20:17;;;;;;;11.60;7.30;;;;;;;5.68;62.17;99135.58;105809;1254;75504;-27
2024/03/14 18:22:45;;;;;;;12.30;7.80;;;;;;;5.52;62.48;99138.74;105577;1258;75351;-27
2024/03/14 18:25:16;;;;;;;13.60;7.70;;;;;;;5.34;62.87;99134.11;105692;1258;61144;-27
2024/03/14 18:27:47;;;;;;;14.20;7.80;;;;;;;5.16;63.42;99137.91;105655;1253;61895;-26
2024/03/14 18:30:20;;;;;;;12.20;7.40;;;;;;;5.00;63.88;99139.70;105563;1258;74704;-27
2024/03/14 18:32:49;;;;;;;12.60;7.80;;;;;;;4.92;64.22;99137.73;105757;1262;76726;-26
2024/03/14 18:35:22;;;;;;;9.00;5.00;;;;;;;4.81;64.42;99141.10;105700;1258;75191;-27
2024/03/14 18:37:51;;;;;;;9.20;6.20;;;;;;;5.41;64.35;99141.80;105672;1260;61109;-27
2024/03/14 18:40:30;;;;;;;11.10;6.60;;;;;;;6.16;62.15;99140.44;105829;1256;63097;-26
2024/03/14 18:42:58;;;;;;;12.00;6.90;;;;;;;6.34;61.07;99139.20;105637;1254;75772;-27
2024/03/14 18:45:27;;;;;;;11.40;5.40;;;;;;;6.25;61.18;99141.69;105569;1259;73018;-27
2024/03/14 18:47:57;;;;;;;8.00;5.00;;;;;;;6.03;61.17;99140.04;105691;1257;74448;-26
2024/03/14 18:50:26;;;;;;;8.80;5.30;;;;;;;5.82;61.67;99142.52;105879;1258;62068;-26
2024/03/14 18:52:54;;;;;;;9.20;5.20;;;;;;;5.69;61.79;99137.74;105713;1257;61848;-27
2024/03/14 18:55:23;;;;;;;13.00;5.10;;;;;;;5.49;62.26;99133.09;105770;1257;74789;-27
2024/03/14 18:57:51;;;;;;;6.80;4.60;;;;;;;5.28;62.48;99138.59;105587;1254;77087;-27
2024/03/14 19:00:25;;;;;;;8.30;5.10;;;;;;;5.12;62.27;99138.30;105564;1254;74407;-26
2024/03/14 19:02:54;;;;;;;9.00;5.10;;;;;;;4.93;62.41;99137.66;105689;1260;61169;-26
2024/03/14 19:05:28;;;;;;;7.70;4.10;;;;;;;4.75;62.99;99138.00;105701;1257;62781;-27
2024/03/14 19:07:57;;;;;;;9.00;5.30;;;;;;;5.26;63.45;99140.30;105654;1261;74405;-27
2024/03/14 19:10:25;;;;;;;12.00;6.30;;;;;;;5.93;61.93;99144.08;105728;1260;75479;-26
2024/03/14 19:12:57;;;;;;;10.00;6.90;;;;;;;6.05;61.46;99145.13;105588;1254;74132;-27
2024/03/14 19:15:26;;;;;;;13.40;7.10;;;;;;;5.86;61.80;99145.35;105647;1257;62842;-27
2024/03/14 19:17:55;;;;;;;9.60;5.10;;;;;;;5.59;62.18;99145.95;105593;1254;61238;-27
2024/03/14 19:20:24;;;;;;;12.60;5.80;;;;;;;5.25;62.63;99146.34;105520;1257;75479;-26
2024/03/14 19:22:53;;;;;;;11.80;6.50;;;;;;;4.94;63.07;99149.84;105542;1261;78286;-27
2024/03/14 19:25:21;;;;;;;11.30;6.00;;;;;;;4.66;63.75;99151.02;105701;1257;75231;-27
2024/03/14 19:27:49;;;;;;;10.40;6.00;;;;;;;4.36;64.75;99150.23;105600;1253;61119;-26
2024/03/14 19:30:21;;;;;;;10.80;6.80;;;;;;;4.12;65.14;99147.92;105868;1253;62935;-27
2024/03/14 19:32:50;;;;;;;13.60;6.20;;;;;;;3.85;66.07;99150.35;105865;1259;73793;-26
2024/03/14 19:35:19;;;;;;;13.40;7.80;;;;;;;4.31;66.45;99150.52;105747;1257;75882;-27
2024/03/14 19:37:48;;;;;;;12.00;7.00;;;;;;;4.97;64.77;99151.70;105703;1254;73455;-27
2024/03/14 19:40:16;;;;;;;12.10;6.80;;;;;;;5.10;63.75;99155.14;105568;1252;61827;-26
2024/03/14 19:42:44;;;;;;;11.60;7.80;;;;;;;4.94;63.59;99151.05;105686;1254;61211;-26
2024/03/14 19:45:14;;;;;;;10.70;6.30;;;;;;;4.70;64.26;99154.94;105657;1257;75152;-27
2024/03/14 19:47:45;;;;;;;10.70;6.70;;;;;;;4.48;64.72;99156.11;105686;1260;77086;-27
2024/03/14 19:50:14;;;;;;;10.90;6.50;;;;;;;4.21;65.07;99152.60;105679;1254;74190;-26
2024/03/14 19:52:44;;;;;;;10.70;7.20;;;;;;;4.02;65.55;99153.23;105651;1255;61506;-27
2024/03/14 19:55:13;;;;;;;10.90;6.50;;;;;;;3.81;65.25;99153.98;105696;1260;61087;-27
2024/03/14 19:57:41;;;;;;;11.20;5.20;;;;;;;3.51;65.88;99148.84;105732;1254;76289;-27
2024/03/14 20:00:10;;;;;;;11.30;6.60;;;;;;;3.99;66.14;99148.42;105706;1254;76770;-27
2024/03/14 20:02:39;;;;;;;19.00;7.90;;;;;;;4.71;64.87;99151.44;105664;1254;71548;-26
2024/03/14 20:05:08;;;;;;;9.60;5.80;;;;;;;4.86;63.92;99158.36;105872;1257;62585;-26
2024/03/14 20:07:36;;;;;;;8.30;5.20;;;;;;;4.67;63.69;99156.65;105710;1257;62769;-27
2024/03/14 20:10:05;;;;;;;8.00;5.00;;;;;;;4.37;63.90;99152.41;105659;1259;75114;-27
2024/03/14 20:12:33;;;;;;;10.80;6.00;;;;;;;4.10;64.58;99148.85;105594;1260;75844;-27
2024/03/14 20:15:02;;;;;;;9.50;6.10;;;;;;;3.84;65.10;99151.28;105550;1254;74438;-27
2024/03/14 20:17:30;;;;;;;11.10;5.80;;;;;;;3.59;65.94;99151.01;105628;1252;61276;-27
2024/03/14 20:19:59;;;;;;;16.90;6.50;;;;;;;3.17;66.96;99145.86;105572;1258;63721;-27
2024/03/14 20:22:27;;;;;;;9.20;5.20;;;;;;;2.91;67.89;99148.48;105595;1254;76816;-26
2024/03/14 20:24:57;;;;;;;14.90;6.90;;;;;;;3.50;67.84;99146.42;105406;1258;76508;-26
2024/03/14 20:27:26;;;;;;;12.70;7.50;;;;;;;4.19;66.14;99139.63;105680;1254;74143;-27
2024/03/14 20:29:55;;;;;;;19.00;7.20;;;;;;;4.29;65.20;99138.91;105629;1257;61205;-27
2024/03/14 20:32:24;;;;;;;14.20;7.10;;;;;;;4.06;65.30;99135.35;105573;1257;61399;-27
2024/03/14 20:34:54;;;;;;;11.20;6.30;;;;;;;3.78;65.50;99135.79;105836;1253;76531;-27
2024/03/14 20:44:11;;;;;;;9.00;4.70;;;;;;;2.84;66.68;99128.41;102640;1294;600357;-25
2024/03/14 20:46:39;;;;;;;7.00;4.80;;;;;;;2.47;67.28;99123.82;104884;1272;61790;-27
2024/03/14 20:49:07;;;;;;;6.90;4.10;;;;;;;2.06;68.58;99131.13;104878;1267;61215;-27
2024/03/14 20:51:38;;;;;;;9.80;5.30;;;;;;;2.44;69.03;99130.81;104887;1271;76984;-28
2024/03/14 20:54:06;;;;;;;8.90;6.10;;;;;;;3.20;67.56;99133.52;104816;1270;76812;-28
2024/03/14 20:56:46;;;;;;;12.90;6.00;;;;;;;3.36;66.92;99133.27;105151;1263;279046;-28
2024/03/14 20:59:15;;;;;;;9.60;5.90;;;;;;;3.19;67.17;99131.86;105553;1262;64189;-28
2024/03/14 21:01:43;;;;;;;13.30;5.50;;;;;;;2.93;67.72;99127.44;105328;1263;61231;-28
2024/03/14 21:04:11;;;;;;;10.50;6.00;;;;;;;2.72;67.86;99125.17;105372;1262;73267;-28
2024/03/14 21:06:39;;;;;;;8.70;5.10;;;;;;;2.54;68.27;99123.12;105353;1262;76144;-28
2024/03/14 21:09:11;;;;;;;10.40;6.00;;;;;;;2.37;68.11;99123.60;105609;1262;75449;-28
2024/03/14 21:11:39;;;;;;;12.10;6.10;;;;;;;2.20;68.68;99123.16;105498;1262;61139;-27
2024/03/14 21:14:07;;;;;;;9.20;5.30;;;;;;;2.03;69.61;99122.20;105485;1256;61469;-27
2024/03/14 21:16:35;;;;;;;13.70;7.00;;;;;;;2.55;70.11;99122.41;105573;1257;77848;-27
2024/03/14 21:19:03;;;;;;;13.40;7.40;;;;;;;3.30;68.13;99121.87;105409;1262;75874;-27
2024/03/14 21:21:31;;;;;;;15.40;8.20;;;;;;;3.53;67.35;99125.89;105394;1262;74643;-27
2024/03/14 21:24:01;;;;;;;11.30;8.40;;;;;;;3.45;67.05;99125.95;105585;1257;61218;-27
2024/03/14 21:26:29;;;;;;;7.30;4.70;;;;;;;3.31;66.95;99121.15;105647;1257;63959;-27
2024/03/14 21:28:59;;;;;;;8.50;4.80;;;;;;;3.07;65.60;99120.95;105642;1258;73831;-27
2024/03/14 21:31:29;;;;;;;8.90;5.10;;;;;;;2.72;66.47;99116.83;105770;1258;74990;-27
2024/03/14 21:33:58;;;;;;;11.90;6.60;;;;;;;2.46;67.37;99118.00;105328;1257;74335;-27
2024/03/14 21:36:28;;;;;;;11.00;6.00;;;;;;;2.24;67.91;99120.74;105692;1255;61112;-27
2024/03/14 21:38:56;;;;;;;7.10;5.00;;;;;;;2.02;68.25;99121.04;105757;1254;61090;-27
2024/03/14 21:41:25;;;;;;;7.50;5.00;;;;;;;2.44;67.88;99121.36;105860;1256;72563;-27
2024/03/14 21:43:54;;;;;;;12.40;7.10;;;;;;;3.14;66.37;99125.06;105726;1254;72552;-27
2024/03/14 21:46:21;;;;;;;10.70;7.60;;;;;;;3.26;66.10;99122.05;105888;1257;75373;-28
2024/03/14 21:48:51;;;;;;;12.70;7.10;;;;;;;3.21;66.08;99124.06;105855;1256;60966;-28
2024/03/14 21:51:19;;;;;;;11.70;5.80;;;;;;;2.94;66.97;99125.36;105789;1260;61171;-27
2024/03/14 21:53:47;;;;;;;10.90;5.60;;;;;;;2.73;66.72;99123.30;105730;1253;73198;-27
2024/03/14 21:56:15;;;;;;;10.80;5.40;;;;;;;2.54;66.90;99119.19;105828;1257;75304;-28
2024/03/14 21:58:42;;;;;;;10.30;5.80;;;;;;;2.37;67.27;99119.31;105808;1254;72681;-26
2024/03/14 22:08:56;;;;;;;15.00;7.50;;;;;;;3.59;67.42;99124.05;102781;1296;598621;-25
2024/03/14 22:11:25;;;;;;;12.50;6.60;;;;;;;3.85;65.71;99123.91;105163;1269;61129;-25
2024/03/14 22:13:53;;;;;;;14.10;7.40;;;;;;;3.67;64.91;99125.36;105153;1268;61187;-25
2024/03/14 22:16:21;;;;;;;12.50;6.80;;;;;;;3.32;65.33;99120.06;105587;1263;70856;-25
2024/03/14 22:18:49;;;;;;;11.80;6.60;;;;;;;2.93;66.44;99118.56;105591;1262;73225;-26
2024/03/14 22:21:17;;;;;;;9.80;5.20;;;;;;;2.62;67.14;99113.53;105547;1263;71457;-28
2024/03/14 22:31:24;;;;;;;7.20;5.00;;;;;;;1.63;69.48;99109.41;102777;1296;600373;-27
2024/03/14 22:33:52;;;;;;;9.50;4.70;;;;;;;1.35;70.29;99106.50;105149;1269;61087;-27
2024/03/14 22:36:20;;;;;;;12.40;5.90;;;;;;;1.78;70.57;99106.34;104883;1273;61132;-28
2024/03/14 22:38:48;;;;;;;10.00;6.00;;;;;;;2.44;68.61;99105.60;105038;1269;73085;-28
2024/03/14 22:41:16;;;;;;;11.90;7.00;;;;;;;2.64;67.57;99105.71;104907;1274;74340;-28
2024/03/14 22:43:43;;;;;;;15.10;6.80;;;;;;;2.65;66.77;99105.52;105106;1269;71748;-28
2024/03/14 22:46:11;;;;;;;10.00;6.70;;;;;;;2.37;67.03;99106.42;105000;1264;239128;-28
2024/03/14 22:48:39;;;;;;;8.00;4.50;;;;;;;2.05;67.27;99107.05;105661;1261;61032;-28
2024/03/14 22:51:06;;;;;;;8.10;4.80;;;;;;;1.78;68.31;99107.23;105665;1259;71801;-28
2024/03/14 23:01:09;;;;;;;11.20;3.90;;;;;;;1.19;71.46;99115.72;102668;1291;599108;-25
2024/03/14 23:03:39;;;;;;;7.30;5.10;;;;;;;1.81;70.98;99112.87;104887;1269;61199;-28
2024/03/14 23:06:07;;;;;;;10.70;6.30;;;;;;;2.65;69.27;99113.55;104862;1266;61070;-28
2024/03/14 23:08:35;;;;;;;9.60;5.40;;;;;;;2.83;68.52;99117.63;104831;1270;70794;-28
2024/03/14 23:11:03;;;;;;;9.70;5.20;;;;;;;2.73;67.82;99118.81;104839;1268;74316;-28
2024/03/14 23:13:31;;;;;;;14.90;6.70;;;;;;;2.44;66.68;99115.23;104892;1266;72485;-27
2024/03/14 23:15:59;;;;;;;9.50;6.10;;;;;;;2.15;67.74;99108.33;104785;1264;223109;-28
2024/03/14 23:26:02;;;;;;;8.90;5.40;;;;;;;1.11;69.63;99101.52;102720;1295;599239;-26
2024/03/14 23:28:31;;;;;;;9.20;3.80;;;;;;;0.87;70.32;99097.90;104878;1266;61171;-28
2024/03/14 23:30:59;;;;;;;9.30;5.90;;;;;;;1.29;72.09;99101.77;104825;1267;61052;-28
2024/03/14 23:33:28;;;;;;;7.80;3.90;;;;;;;2.26;70.93;99099.23;104862;1270;70769;-27
2024/03/14 23:35:56;;;;;;;11.50;5.00;;;;;;;2.66;68.85;99096.02;104917;1270;74341;-27
2024/03/14 23:38:23;;;;;;;9.00;4.90;;;;;;;2.57;67.27;99099.16;104840;1268;71890;-27
2024/03/14 23:40:51;;;;;;;8.30;5.20;;;;;;;2.33;67.21;99097.02;104842;1264;347418;-28
2024/03/14 23:43:19;;;;;;;12.30;7.10;;;;;;;2.06;68.56;99099.29;105160;1264;61165;-27
2024/03/14 23:45:46;;;;;;;11.40;6.30;;;;;;;1.84;69.60;99099.27;105238;1265;71794;-28
2024/03/14 23:48:14;;;;;;;8.30;5.50;;;;;;;1.68;69.97;99100.97;105150;1267;72820;-27
2024/03/14 23:50:42;;;;;;;13.30;5.60;;;;;;;1.59;69.58;99108.39;105189;1269;70687;-27
2024/03/14 23:53:09;;;;;;;10.00;6.00;;;;;;;1.46;68.74;99107.23;105131;1264;61185;-27
